sensor_id;sensor_type;location;lat;lon;timestamp;P1;durP1;ratioP1;P2;durP2;ratioP2
1682;SDS011;13252;53.596;10.060;2023-04-03T00:01:00;8.90;;;2.60;;
1682;SDS011;13252;53.596;10.060;2023-04-03T00:03:28;12.27;;;3.97;;
1682;SDS011;13252;53.596;10.060;2023-04-03T00:05:56;5.33;;;2.90;;
1682;SDS011;13252;53.596;10.060;2023-04-03T00:08:24;6.23;;;2.80;;
1682;SDS011;13252;53.596;10.060;2023-04-03T00:10:52;8.43;;;3.30;;
1682;SDS011;13252;53.596;10.060;2023-04-03T00:13:20;9.80;;;3.73;;
1682;SDS011;13252;53.596;10.060;2023-04-03T00:15:49;8.63;;;2.63;;
1682;SDS011;13252;53.596;10.060;2023-04-03T00:18:17;12.47;;;3.93;;
1682;SDS011;13252;53.596;10.060;2023-04-03T00:20:45;12.00;;;4.37;;
1682;SDS011;13252;53.596;10.060;2023-04-03T00:23:13;6.33;;;3.40;;
1682;SDS011;13252;53.596;10.060;2023-04-03T00:25:41;16.27;;;3.60;;
1682;SDS011;13252;53.596;10.060;2023-04-03T00:28:08;6.33;;;2.80;;
1682;SDS011;13252;53.596;10.060;2023-04-03T00:30:36;7.30;;;2.57;;
1682;SDS011;13252;53.596;10.060;2023-04-03T00:33:06;11.43;;;3.57;;
1682;SDS011;13252;53.596;10.060;2023-04-03T00:35:34;6.50;;;2.90;;
1682;SDS011;13252;53.596;10.060;2023-04-03T00:38:02;7.17;;;3.03;;
1682;SDS011;13252;53.596;10.060;2023-04-03T00:40:32;7.93;;;3.13;;
1682;SDS011;13252;53.596;10.060;2023-04-03T00:43:05;8.90;;;3.03;;
1682;SDS011;13252;53.596;10.060;2023-04-03T00:45:38;6.50;;;2.97;;
1682;SDS011;13252;53.596;10.060;2023-04-03T00:48:09;11.87;;;4.23;;
1682;SDS011;13252;53.596;10.060;2023-04-03T00:50:40;11.83;;;3.67;;
1682;SDS011;13252;53.596;10.060;2023-04-03T00:53:09;7.53;;;3.03;;
1682;SDS011;13252;53.596;10.060;2023-04-03T00:55:39;6.97;;;3.17;;
1682;SDS011;13252;53.596;10.060;2023-04-03T00:58:07;5.77;;;3.17;;
1682;SDS011;13252;53.596;10.060;2023-04-03T01:00:35;5.40;;;3.03;;
1682;SDS011;13252;53.596;10.060;2023-04-03T01:03:05;7.33;;;3.43;;
1682;SDS011;13252;53.596;10.060;2023-04-03T01:05:35;13.80;;;2.97;;
1682;SDS011;13252;53.596;10.060;2023-04-03T01:08:03;10.10;;;2.93;;
1682;SDS011;13252;53.596;10.060;2023-04-03T01:10:33;9.73;;;3.07;;
1682;SDS011;13252;53.596;10.060;2023-04-03T01:13:01;5.80;;;3.13;;
1682;SDS011;13252;53.596;10.060;2023-04-03T01:15:28;6.80;;;2.57;;
1682;SDS011;13252;53.596;10.060;2023-04-03T01:18:01;7.63;;;3.00;;
1682;SDS011;13252;53.596;10.060;2023-04-03T01:20:36;8.97;;;3.10;;
1682;SDS011;13252;53.596;10.060;2023-04-03T01:23:35;6.43;;;2.97;;
1682;SDS011;13252;53.596;10.060;2023-04-03T01:26:11;8.63;;;3.33;;
1682;SDS011;13252;53.596;10.060;2023-04-03T01:28:39;11.20;;;2.87;;
1682;SDS011;13252;53.596;10.060;2023-04-03T01:31:10;8.57;;;3.20;;
1682;SDS011;13252;53.596;10.060;2023-04-03T01:33:44;10.77;;;3.30;;
1682;SDS011;13252;53.596;10.060;2023-04-03T01:36:13;7.73;;;2.70;;
1682;SDS011;13252;53.596;10.060;2023-04-03T01:38:42;8.00;;;3.67;;
1682;SDS011;13252;53.596;10.060;2023-04-03T01:41:10;4.37;;;2.93;;
1682;SDS011;13252;53.596;10.060;2023-04-03T01:43:38;7.73;;;2.93;;
1682;SDS011;13252;53.596;10.060;2023-04-03T01:46:06;10.37;;;3.50;;
1682;SDS011;13252;53.596;10.060;2023-04-03T01:48:34;8.23;;;3.00;;
1682;SDS011;13252;53.596;10.060;2023-04-03T01:51:03;8.50;;;3.60;;
1682;SDS011;13252;53.596;10.060;2023-04-03T01:53:31;7.93;;;3.57;;
1682;SDS011;13252;53.596;10.060;2023-04-03T01:55:59;10.20;;;3.93;;
1682;SDS011;13252;53.596;10.060;2023-04-03T01:58:29;16.53;;;3.73;;
1682;SDS011;13252;53.596;10.060;2023-04-03T02:00:57;8.47;;;3.40;;
1682;SDS011;13252;53.596;10.060;2023-04-03T02:03:25;9.40;;;3.30;;
1682;SDS011;13252;53.596;10.060;2023-04-03T02:05:53;9.53;;;3.40;;
1682;SDS011;13252;53.596;10.060;2023-04-03T02:08:23;8.30;;;2.90;;
1682;SDS011;13252;53.596;10.060;2023-04-03T02:10:51;10.73;;;3.67;;
1682;SDS011;13252;53.596;10.060;2023-04-03T02:13:19;17.23;;;5.03;;
1682;SDS011;13252;53.596;10.060;2023-04-03T02:15:47;10.30;;;3.20;;
1682;SDS011;13252;53.596;10.060;2023-04-03T02:18:16;8.20;;;3.67;;
1682;SDS011;13252;53.596;10.060;2023-04-03T02:20:44;11.00;;;3.40;;
1682;SDS011;13252;53.596;10.060;2023-04-03T02:23:11;6.93;;;3.13;;
1682;SDS011;13252;53.596;10.060;2023-04-03T02:25:40;9.57;;;3.50;;
1682;SDS011;13252;53.596;10.060;2023-04-03T02:28:08;9.40;;;3.83;;
1682;SDS011;13252;53.596;10.060;2023-04-03T02:30:36;8.23;;;3.93;;
1682;SDS011;13252;53.596;10.060;2023-04-03T02:33:04;10.03;;;2.97;;
1682;SDS011;13252;53.596;10.060;2023-04-03T02:35:32;7.00;;;3.47;;
1682;SDS011;13252;53.596;10.060;2023-04-03T02:38:00;8.33;;;3.70;;
1682;SDS011;13252;53.596;10.060;2023-04-03T02:40:28;7.73;;;3.03;;
1682;SDS011;13252;53.596;10.060;2023-04-03T02:42:57;8.20;;;3.43;;
1682;SDS011;13252;53.596;10.060;2023-04-03T02:45:25;6.50;;;3.50;;
1682;SDS011;13252;53.596;10.060;2023-04-03T02:47:52;8.90;;;2.70;;
1682;SDS011;13252;53.596;10.060;2023-04-03T02:50:20;9.77;;;2.70;;
1682;SDS011;13252;53.596;10.060;2023-04-03T02:52:48;10.60;;;3.10;;
1682;SDS011;13252;53.596;10.060;2023-04-03T02:55:16;10.90;;;3.80;;
1682;SDS011;13252;53.596;10.060;2023-04-03T02:57:46;5.07;;;2.80;;
1682;SDS011;13252;53.596;10.060;2023-04-03T03:00:16;8.93;;;3.80;;
1682;SDS011;13252;53.596;10.060;2023-04-03T03:02:44;10.40;;;3.07;;
1682;SDS011;13252;53.596;10.060;2023-04-03T03:05:11;6.00;;;3.20;;
1682;SDS011;13252;53.596;10.060;2023-04-03T03:07:39;7.00;;;2.57;;
1682;SDS011;13252;53.596;10.060;2023-04-03T03:10:07;11.03;;;3.50;;
1682;SDS011;13252;53.596;10.060;2023-04-03T03:12:36;6.20;;;2.63;;
1682;SDS011;13252;53.596;10.060;2023-04-03T03:15:03;12.60;;;2.87;;
1682;SDS011;13252;53.596;10.060;2023-04-03T03:17:33;13.67;;;3.27;;
1682;SDS011;13252;53.596;10.060;2023-04-03T03:20:03;6.80;;;3.00;;
1682;SDS011;13252;53.596;10.060;2023-04-03T03:22:32;10.70;;;2.93;;
1682;SDS011;13252;53.596;10.060;2023-04-03T03:24:59;6.63;;;3.30;;
1682;SDS011;13252;53.596;10.060;2023-04-03T03:27:28;12.63;;;4.40;;
1682;SDS011;13252;53.596;10.060;2023-04-03T03:29:56;8.13;;;2.77;;
1682;SDS011;13252;53.596;10.060;2023-04-03T03:32:24;6.10;;;2.63;;
1682;SDS011;13252;53.596;10.060;2023-04-03T03:34:53;32.33;;;5.13;;
1682;SDS011;13252;53.596;10.060;2023-04-03T03:37:21;8.50;;;3.03;;
1682;SDS011;13252;53.596;10.060;2023-04-03T03:39:49;7.00;;;2.80;;
1682;SDS011;13252;53.596;10.060;2023-04-03T03:42:16;5.13;;;3.13;;
1682;SDS011;13252;53.596;10.060;2023-04-03T03:44:44;7.70;;;3.60;;
1682;SDS011;13252;53.596;10.060;2023-04-03T03:47:12;7.33;;;3.37;;
1682;SDS011;13252;53.596;10.060;2023-04-03T03:49:40;7.13;;;3.53;;
1682;SDS011;13252;53.596;10.060;2023-04-03T03:52:09;12.20;;;3.40;;
1682;SDS011;13252;53.596;10.060;2023-04-03T03:54:37;7.70;;;2.63;;
1682;SDS011;13252;53.596;10.060;2023-04-03T03:57:05;7.60;;;3.47;;
1682;SDS011;13252;53.596;10.060;2023-04-03T03:59:33;8.50;;;3.50;;
1682;SDS011;13252;53.596;10.060;2023-04-03T04:02:01;5.83;;;2.50;;
1682;SDS011;13252;53.596;10.060;2023-04-03T04:04:29;7.40;;;2.97;;
1682;SDS011;13252;53.596;10.060;2023-04-03T04:06:57;7.50;;;3.37;;
1682;SDS011;13252;53.596;10.060;2023-04-03T04:09:28;13.07;;;2.77;;
1682;SDS011;13252;53.596;10.060;2023-04-03T04:11:56;8.40;;;3.37;;
1682;SDS011;13252;53.596;10.060;2023-04-03T04:14:24;7.83;;;2.83;;
1682;SDS011;13252;53.596;10.060;2023-04-03T04:16:53;8.43;;;3.37;;
1682;SDS011;13252;53.596;10.060;2023-04-03T04:19:24;9.30;;;2.63;;
1682;SDS011;13252;53.596;10.060;2023-04-03T04:21:51;14.27;;;3.10;;
1682;SDS011;13252;53.596;10.060;2023-04-03T04:24:19;15.13;;;3.70;;
1682;SDS011;13252;53.596;10.060;2023-04-03T04:26:52;7.53;;;3.57;;
1682;SDS011;13252;53.596;10.060;2023-04-03T04:29:21;10.37;;;3.37;;
1682;SDS011;13252;53.596;10.060;2023-04-03T04:31:50;6.90;;;3.23;;
1682;SDS011;13252;53.596;10.060;2023-04-03T04:34:20;6.53;;;3.53;;
1682;SDS011;13252;53.596;10.060;2023-04-03T04:36:47;7.77;;;3.40;;
1682;SDS011;13252;53.596;10.060;2023-04-03T04:39:16;7.33;;;2.70;;
1682;SDS011;13252;53.596;10.060;2023-04-03T04:41:43;7.23;;;3.20;;
1682;SDS011;13252;53.596;10.060;2023-04-03T04:44:13;8.00;;;2.50;;
1682;SDS011;13252;53.596;10.060;2023-04-03T04:46:41;5.93;;;2.67;;
1682;SDS011;13252;53.596;10.060;2023-04-03T04:49:09;10.03;;;3.20;;
1682;SDS011;13252;53.596;10.060;2023-04-03T04:51:37;7.50;;;3.27;;
1682;SDS011;13252;53.596;10.060;2023-04-03T04:54:19;11.47;;;3.60;;
1682;SDS011;13252;53.596;10.060;2023-04-03T04:56:47;8.80;;;3.07;;
1682;SDS011;13252;53.596;10.060;2023-04-03T04:59:17;7.17;;;3.33;;
1682;SDS011;13252;53.596;10.060;2023-04-03T05:01:47;13.67;;;4.73;;
1682;SDS011;13252;53.596;10.060;2023-04-03T05:04:16;9.47;;;3.83;;
1682;SDS011;13252;53.596;10.060;2023-04-03T05:06:48;10.13;;;3.70;;
1682;SDS011;13252;53.596;10.060;2023-04-03T05:09:20;10.17;;;3.70;;
1682;SDS011;13252;53.596;10.060;2023-04-03T05:11:50;13.73;;;3.73;;
1682;SDS011;13252;53.596;10.060;2023-04-03T05:14:22;8.10;;;3.50;;
1682;SDS011;13252;53.596;10.060;2023-04-03T05:16:51;9.80;;;3.77;;
1682;SDS011;13252;53.596;10.060;2023-04-03T05:19:23;7.27;;;3.60;;
1682;SDS011;13252;53.596;10.060;2023-04-03T05:21:51;8.90;;;4.00;;
1682;SDS011;13252;53.596;10.060;2023-04-03T05:24:19;14.30;;;5.80;;
1682;SDS011;13252;53.596;10.060;2023-04-03T05:26:47;8.90;;;3.83;;
1682;SDS011;13252;53.596;10.060;2023-04-03T05:29:15;9.00;;;3.83;;
1682;SDS011;13252;53.596;10.060;2023-04-03T05:31:45;6.77;;;3.90;;
1682;SDS011;13252;53.596;10.060;2023-04-03T05:34:13;9.20;;;4.17;;
1682;SDS011;13252;53.596;10.060;2023-04-03T05:36:42;7.57;;;3.50;;
1682;SDS011;13252;53.596;10.060;2023-04-03T05:39:11;8.50;;;5.73;;
1682;SDS011;13252;53.596;10.060;2023-04-03T05:41:54;6.50;;;3.93;;
1682;SDS011;13252;53.596;10.060;2023-04-03T05:44:23;9.83;;;4.40;;
1682;SDS011;13252;53.596;10.060;2023-04-03T05:46:54;32.73;;;5.07;;
1682;SDS011;13252;53.596;10.060;2023-04-03T05:49:22;12.03;;;5.63;;
1682;SDS011;13252;53.596;10.060;2023-04-03T05:51:50;10.60;;;4.20;;
1682;SDS011;13252;53.596;10.060;2023-04-03T05:54:24;10.20;;;4.33;;
1682;SDS011;13252;53.596;10.060;2023-04-03T05:56:59;13.57;;;3.97;;
1682;SDS011;13252;53.596;10.060;2023-04-03T05:59:28;10.83;;;4.50;;
1682;SDS011;13252;53.596;10.060;2023-04-03T06:01:58;7.10;;;4.10;;
1682;SDS011;13252;53.596;10.060;2023-04-03T06:04:27;8.10;;;3.80;;
1682;SDS011;13252;53.596;10.060;2023-04-03T06:06:55;10.83;;;3.53;;
1682;SDS011;13252;53.596;10.060;2023-04-03T06:09:26;7.40;;;3.63;;
1682;SDS011;13252;53.596;10.060;2023-04-03T06:11:55;8.37;;;4.17;;
1682;SDS011;13252;53.596;10.060;2023-04-03T06:14:25;10.27;;;3.93;;
1682;SDS011;13252;53.596;10.060;2023-04-03T06:16:53;10.87;;;4.90;;
1682;SDS011;13252;53.596;10.060;2023-04-03T06:19:22;20.67;;;4.37;;
1682;SDS011;13252;53.596;10.060;2023-04-03T06:21:54;9.10;;;3.50;;
1682;SDS011;13252;53.596;10.060;2023-04-03T06:24:23;13.63;;;3.13;;
1682;SDS011;13252;53.596;10.060;2023-04-03T06:26:51;8.67;;;3.33;;
1682;SDS011;13252;53.596;10.060;2023-04-03T06:29:20;8.67;;;3.50;;
1682;SDS011;13252;53.596;10.060;2023-04-03T06:31:48;8.33;;;3.23;;
1682;SDS011;13252;53.596;10.060;2023-04-03T06:34:17;7.70;;;3.30;;
1682;SDS011;13252;53.596;10.060;2023-04-03T06:36:46;10.63;;;2.87;;
1682;SDS011;13252;53.596;10.060;2023-04-03T06:39:16;5.43;;;2.67;;
1682;SDS011;13252;53.596;10.060;2023-04-03T06:41:46;7.80;;;3.00;;
1682;SDS011;13252;53.596;10.060;2023-04-03T06:44:15;6.83;;;2.50;;
1682;SDS011;13252;53.596;10.060;2023-04-03T06:46:43;6.03;;;2.90;;
1682;SDS011;13252;53.596;10.060;2023-04-03T06:49:11;6.87;;;2.53;;
1682;SDS011;13252;53.596;10.060;2023-04-03T06:51:39;5.13;;;2.57;;
1682;SDS011;13252;53.596;10.060;2023-04-03T06:54:08;5.47;;;2.10;;
1682;SDS011;13252;53.596;10.060;2023-04-03T06:56:36;5.40;;;1.90;;
1682;SDS011;13252;53.596;10.060;2023-04-03T06:59:04;4.50;;;1.93;;
1682;SDS011;13252;53.596;10.060;2023-04-03T07:01:32;10.13;;;2.30;;
1682;SDS011;13252;53.596;10.060;2023-04-03T07:04:00;9.37;;;3.53;;
1682;SDS011;13252;53.596;10.060;2023-04-03T07:06:28;6.47;;;2.50;;
1682;SDS011;13252;53.596;10.060;2023-04-03T07:08:57;6.67;;;2.47;;
1682;SDS011;13252;53.596;10.060;2023-04-03T07:11:26;8.87;;;3.23;;
1682;SDS011;13252;53.596;10.060;2023-04-03T07:13:54;6.43;;;1.90;;
1682;SDS011;13252;53.596;10.060;2023-04-03T07:16:22;5.30;;;1.73;;
1682;SDS011;13252;53.596;10.060;2023-04-03T07:18:50;2.67;;;1.50;;
1682;SDS011;13252;53.596;10.060;2023-04-03T07:21:18;4.70;;;2.00;;
1682;SDS011;13252;53.596;10.060;2023-04-03T07:23:47;6.40;;;1.40;;
1682;SDS011;13252;53.596;10.060;2023-04-03T07:26:19;4.23;;;2.10;;
1682;SDS011;13252;53.596;10.060;2023-04-03T07:28:49;4.60;;;1.47;;
1682;SDS011;13252;53.596;10.060;2023-04-03T07:31:17;5.80;;;1.70;;
1682;SDS011;13252;53.596;10.060;2023-04-03T07:33:45;3.93;;;1.90;;
1682;SDS011;13252;53.596;10.060;2023-04-03T07:36:14;5.60;;;2.23;;
1682;SDS011;13252;53.596;10.060;2023-04-03T07:38:43;8.90;;;2.10;;
1682;SDS011;13252;53.596;10.060;2023-04-03T07:41:11;9.77;;;1.97;;
1682;SDS011;13252;53.596;10.060;2023-04-03T07:43:41;6.27;;;1.87;;
1682;SDS011;13252;53.596;10.060;2023-04-03T07:46:11;12.10;;;1.50;;
1682;SDS011;13252;53.596;10.060;2023-04-03T07:48:39;5.30;;;1.60;;
1682;SDS011;13252;53.596;10.060;2023-04-03T07:51:06;7.83;;;1.80;;
1682;SDS011;13252;53.596;10.060;2023-04-03T07:53:34;4.20;;;2.07;;
1682;SDS011;13252;53.596;10.060;2023-04-03T07:56:02;4.43;;;1.70;;
1682;SDS011;13252;53.596;10.060;2023-04-03T07:58:30;6.37;;;1.83;;
1682;SDS011;13252;53.596;10.060;2023-04-03T08:00:57;4.87;;;2.60;;
1682;SDS011;13252;53.596;10.060;2023-04-03T08:03:27;8.33;;;2.50;;
1682;SDS011;13252;53.596;10.060;2023-04-03T08:05:55;4.90;;;1.10;;
1682;SDS011;13252;53.596;10.060;2023-04-03T08:08:30;3.50;;;1.50;;
1682;SDS011;13252;53.596;10.060;2023-04-03T08:10:59;5.40;;;1.53;;
1682;SDS011;13252;53.596;10.060;2023-04-03T08:13:29;3.90;;;1.10;;
1682;SDS011;13252;53.596;10.060;2023-04-03T08:15:56;7.63;;;1.40;;
1682;SDS011;13252;53.596;10.060;2023-04-03T08:18:26;4.27;;;1.50;;
1682;SDS011;13252;53.596;10.060;2023-04-03T08:20:54;4.23;;;0.90;;
1682;SDS011;13252;53.596;10.060;2023-04-03T08:23:22;5.47;;;1.93;;
1682;SDS011;13252;53.596;10.060;2023-04-03T08:25:50;3.67;;;1.50;;
1682;SDS011;13252;53.596;10.060;2023-04-03T08:28:17;4.63;;;2.63;;
1682;SDS011;13252;53.596;10.060;2023-04-03T08:30:45;8.30;;;1.50;;
1682;SDS011;13252;53.596;10.060;2023-04-03T08:33:13;3.37;;;1.40;;
1682;SDS011;13252;53.596;10.060;2023-04-03T08:35:43;4.63;;;1.03;;
1682;SDS011;13252;53.596;10.060;2023-04-03T08:38:10;6.63;;;1.80;;
1682;SDS011;13252;53.596;10.060;2023-04-03T08:40:38;4.80;;;1.63;;
1682;SDS011;13252;53.596;10.060;2023-04-03T08:43:14;2.93;;;1.20;;
1682;SDS011;13252;53.596;10.060;2023-04-03T08:45:50;3.40;;;1.60;;
1682;SDS011;13252;53.596;10.060;2023-04-03T08:48:20;6.73;;;2.03;;
1682;SDS011;13252;53.596;10.060;2023-04-03T08:50:51;6.70;;;1.43;;
1682;SDS011;13252;53.596;10.060;2023-04-03T08:53:22;4.27;;;1.23;;
1682;SDS011;13252;53.596;10.060;2023-04-03T08:55:53;8.53;;;2.17;;
1682;SDS011;13252;53.596;10.060;2023-04-03T08:58:22;4.10;;;1.00;;
1682;SDS011;13252;53.596;10.060;2023-04-03T09:00:53;2.83;;;1.10;;
1682;SDS011;13252;53.596;10.060;2023-04-03T09:03:24;4.07;;;1.03;;
1682;SDS011;13252;53.596;10.060;2023-04-03T09:05:55;10.13;;;1.57;;
1682;SDS011;13252;53.596;10.060;2023-04-03T09:08:25;7.23;;;2.17;;
1682;SDS011;13252;53.596;10.060;2023-04-03T09:10:58;7.13;;;1.33;;
1682;SDS011;13252;53.596;10.060;2023-04-03T09:13:34;3.77;;;1.50;;
1682;SDS011;13252;53.596;10.060;2023-04-03T09:16:05;3.80;;;1.40;;
1682;SDS011;13252;53.596;10.060;2023-04-03T09:18:44;4.10;;;1.90;;
1682;SDS011;13252;53.596;10.060;2023-04-03T09:21:15;3.23;;;1.20;;
1682;SDS011;13252;53.596;10.060;2023-04-03T09:23:45;4.30;;;1.17;;
1682;SDS011;13252;53.596;10.060;2023-04-03T09:26:14;7.87;;;2.90;;
1682;SDS011;13252;53.596;10.060;2023-04-03T09:28:45;4.80;;;1.57;;
1682;SDS011;13252;53.596;10.060;2023-04-03T09:31:18;3.43;;;1.43;;
1682;SDS011;13252;53.596;10.060;2023-04-03T09:33:48;3.67;;;1.50;;
1682;SDS011;13252;53.596;10.060;2023-04-03T09:39:10;4.90;;;1.00;;
1682;SDS011;13252;53.596;10.060;2023-04-03T09:41:41;10.73;;;1.30;;
1682;SDS011;13252;53.596;10.060;2023-04-03T09:44:23;2.53;;;1.17;;
1682;SDS011;13252;53.596;10.060;2023-04-03T09:46:52;4.40;;;1.20;;
1682;SDS011;13252;53.596;10.060;2023-04-03T09:49:20;10.73;;;1.33;;
1682;SDS011;13252;53.596;10.060;2023-04-03T09:51:49;8.33;;;1.73;;
1682;SDS011;13252;53.596;10.060;2023-04-03T09:57:09;6.90;;;1.47;;
1682;SDS011;13252;53.596;10.060;2023-04-03T09:59:41;3.60;;;1.00;;
1682;SDS011;13252;53.596;10.060;2023-04-03T10:02:21;3.57;;;1.30;;
1682;SDS011;13252;53.596;10.060;2023-04-03T10:04:51;2.70;;;0.97;;
1682;SDS011;13252;53.596;10.060;2023-04-03T10:07:36;6.70;;;1.20;;
1682;SDS011;13252;53.596;10.060;2023-04-03T10:10:16;2.03;;;0.80;;
1682;SDS011;13252;53.596;10.060;2023-04-03T10:12:46;3.10;;;1.13;;
1682;SDS011;13252;53.596;10.060;2023-04-03T10:15:14;2.40;;;0.90;;
1682;SDS011;13252;53.596;10.060;2023-04-03T10:17:47;4.03;;;1.60;;
1682;SDS011;13252;53.596;10.060;2023-04-03T10:20:23;3.20;;;1.13;;
1682;SDS011;13252;53.596;10.060;2023-04-03T10:22:59;5.17;;;1.40;;
1682;SDS011;13252;53.596;10.060;2023-04-03T10:25:31;2.93;;;1.27;;
1682;SDS011;13252;53.596;10.060;2023-04-03T10:28:03;3.43;;;1.17;;
1682;SDS011;13252;53.596;10.060;2023-04-03T10:30:34;3.27;;;1.03;;
1682;SDS011;13252;53.596;10.060;2023-04-03T10:33:15;4.73;;;1.20;;
1682;SDS011;13252;53.596;10.060;2023-04-03T10:35:50;8.53;;;1.60;;
1682;SDS011;13252;53.596;10.060;2023-04-03T10:38:28;3.00;;;0.90;;
1682;SDS011;13252;53.596;10.060;2023-04-03T10:41:02;2.80;;;0.93;;
1682;SDS011;13252;53.596;10.060;2023-04-03T10:43:36;3.53;;;1.10;;
1682;SDS011;13252;53.596;10.060;2023-04-03T10:46:11;3.20;;;1.63;;
1682;SDS011;13252;53.596;10.060;2023-04-03T10:48:46;2.40;;;1.20;;
1682;SDS011;13252;53.596;10.060;2023-04-03T10:51:24;3.67;;;1.37;;
1682;SDS011;13252;53.596;10.060;2023-04-03T10:53:57;3.90;;;1.80;;
1682;SDS011;13252;53.596;10.060;2023-04-03T10:56:31;3.47;;;1.30;;
1682;SDS011;13252;53.596;10.060;2023-04-03T10:59:01;3.80;;;1.33;;
1682;SDS011;13252;53.596;10.060;2023-04-03T11:01:35;3.10;;;1.10;;
1682;SDS011;13252;53.596;10.060;2023-04-03T11:04:05;3.27;;;1.07;;
1682;SDS011;13252;53.596;10.060;2023-04-03T11:06:36;2.83;;;0.93;;
1682;SDS011;13252;53.596;10.060;2023-04-03T11:09:10;4.77;;;1.23;;
1682;SDS011;13252;53.596;10.060;2023-04-03T11:11:46;5.17;;;1.60;;
1682;SDS011;13252;53.596;10.060;2023-04-03T11:14:17;6.77;;;2.00;;
1682;SDS011;13252;53.596;10.060;2023-04-03T11:16:50;5.30;;;1.53;;
1682;SDS011;13252;53.596;10.060;2023-04-03T11:19:26;3.30;;;1.20;;
1682;SDS011;13252;53.596;10.060;2023-04-03T11:22:01;4.70;;;1.87;;
1682;SDS011;13252;53.596;10.060;2023-04-03T11:24:32;7.30;;;1.60;;
1682;SDS011;13252;53.596;10.060;2023-04-03T11:27:00;5.33;;;1.10;;
1682;SDS011;13252;53.596;10.060;2023-04-03T11:29:32;3.07;;;1.37;;
1682;SDS011;13252;53.596;10.060;2023-04-03T11:32:06;4.63;;;1.50;;
1682;SDS011;13252;53.596;10.060;2023-04-03T11:34:37;5.40;;;1.83;;
1682;SDS011;13252;53.596;10.060;2023-04-03T11:37:12;5.17;;;1.50;;
1682;SDS011;13252;53.596;10.060;2023-04-03T11:39:48;7.57;;;1.40;;
1682;SDS011;13252;53.596;10.060;2023-04-03T11:42:24;5.83;;;1.20;;
1682;SDS011;13252;53.596;10.060;2023-04-03T11:47:46;2.90;;;1.03;;
1682;SDS011;13252;53.596;10.060;2023-04-03T11:50:30;3.00;;;1.13;;
1682;SDS011;13252;53.596;10.060;2023-04-03T11:52:59;3.83;;;1.07;;
1682;SDS011;13252;53.596;10.060;2023-04-03T11:55:43;6.83;;;1.07;;
1682;SDS011;13252;53.596;10.060;2023-04-03T11:58:13;4.87;;;0.97;;
1682;SDS011;13252;53.596;10.060;2023-04-03T12:00:47;5.00;;;1.40;;
1682;SDS011;13252;53.596;10.060;2023-04-03T12:12:39;6.13;;;1.20;;
1682;SDS011;13252;53.596;10.060;2023-04-03T12:24:37;7.33;;;1.10;;
1682;SDS011;13252;53.596;10.060;2023-04-03T12:27:17;3.70;;;1.10;;
1682;SDS011;13252;53.596;10.060;2023-04-03T12:29:54;2.57;;;0.87;;
1682;SDS011;13252;53.596;10.060;2023-04-03T12:32:41;3.50;;;1.40;;
1682;SDS011;13252;53.596;10.060;2023-04-03T12:35:39;5.60;;;1.17;;
1682;SDS011;13252;53.596;10.060;2023-04-03T12:38:21;3.73;;;1.40;;
1682;SDS011;13252;53.596;10.060;2023-04-03T12:41:17;2.40;;;0.80;;
1682;SDS011;13252;53.596;10.060;2023-04-03T12:43:50;6.13;;;1.07;;
1682;SDS011;13252;53.596;10.060;2023-04-03T12:46:32;3.90;;;1.00;;
1682;SDS011;13252;53.596;10.060;2023-04-03T12:49:12;4.70;;;1.17;;
1682;SDS011;13252;53.596;10.060;2023-04-03T12:51:58;5.00;;;1.10;;
1682;SDS011;13252;53.596;10.060;2023-04-03T12:54:27;6.07;;;1.30;;
1682;SDS011;13252;53.596;10.060;2023-04-03T12:57:11;3.13;;;0.80;;
1682;SDS011;13252;53.596;10.060;2023-04-03T12:59:39;3.80;;;1.30;;
1682;SDS011;13252;53.596;10.060;2023-04-03T13:02:15;3.63;;;1.20;;
1682;SDS011;13252;53.596;10.060;2023-04-03T13:04:47;2.87;;;0.90;;
1682;SDS011;13252;53.596;10.060;2023-04-03T13:07:22;2.83;;;0.87;;
1682;SDS011;13252;53.596;10.060;2023-04-03T13:10:00;6.40;;;1.63;;
1682;SDS011;13252;53.596;10.060;2023-04-03T13:12:31;3.67;;;1.17;;
1682;SDS011;13252;53.596;10.060;2023-04-03T13:15:00;2.00;;;0.80;;
1682;SDS011;13252;53.596;10.060;2023-04-03T13:17:32;5.87;;;1.20;;
1682;SDS011;13252;53.596;10.060;2023-04-03T13:20:10;2.90;;;1.07;;
1682;SDS011;13252;53.596;10.060;2023-04-03T13:22:40;2.07;;;0.73;;
1682;SDS011;13252;53.596;10.060;2023-04-03T13:25:13;3.00;;;1.17;;
1682;SDS011;13252;53.596;10.060;2023-04-03T13:27:43;4.47;;;1.20;;
1682;SDS011;13252;53.596;10.060;2023-04-03T13:30:22;4.70;;;1.37;;
1682;SDS011;13252;53.596;10.060;2023-04-03T13:32:54;4.23;;;0.90;;
1682;SDS011;13252;53.596;10.060;2023-04-03T13:35:30;3.30;;;1.30;;
1682;SDS011;13252;53.596;10.060;2023-04-03T13:38:02;2.57;;;1.00;;
1682;SDS011;13252;53.596;10.060;2023-04-03T13:40:32;2.90;;;1.40;;
1682;SDS011;13252;53.596;10.060;2023-04-03T13:43:17;5.80;;;1.60;;
1682;SDS011;13252;53.596;10.060;2023-04-03T13:46:00;4.07;;;1.10;;
1682;SDS011;13252;53.596;10.060;2023-04-03T13:48:36;4.77;;;1.20;;
1682;SDS011;13252;53.596;10.060;2023-04-03T13:51:06;3.50;;;1.10;;
1682;SDS011;13252;53.596;10.060;2023-04-03T13:53:45;2.77;;;1.00;;
1682;SDS011;13252;53.596;10.060;2023-04-03T13:56:18;3.80;;;1.37;;
1682;SDS011;13252;53.596;10.060;2023-04-03T13:58:53;2.30;;;0.93;;
1682;SDS011;13252;53.596;10.060;2023-04-03T14:01:23;4.83;;;1.10;;
1682;SDS011;13252;53.596;10.060;2023-04-03T14:03:55;5.70;;;3.93;;
1682;SDS011;13252;53.596;10.060;2023-04-03T14:06:24;3.47;;;0.87;;
1682;SDS011;13252;53.596;10.060;2023-04-03T14:08:53;4.97;;;1.50;;
1682;SDS011;13252;53.596;10.060;2023-04-03T14:11:22;3.90;;;1.40;;
1682;SDS011;13252;53.596;10.060;2023-04-03T14:13:53;4.33;;;1.10;;
1682;SDS011;13252;53.596;10.060;2023-04-03T14:16:24;4.93;;;1.60;;
1682;SDS011;13252;53.596;10.060;2023-04-03T14:18:57;4.87;;;1.10;;
1682;SDS011;13252;53.596;10.060;2023-04-03T14:21:25;4.20;;;1.10;;
1682;SDS011;13252;53.596;10.060;2023-04-03T14:23:52;4.27;;;1.20;;
1682;SDS011;13252;53.596;10.060;2023-04-03T14:26:21;4.97;;;1.80;;
1682;SDS011;13252;53.596;10.060;2023-04-03T14:28:50;3.03;;;1.10;;
1682;SDS011;13252;53.596;10.060;2023-04-03T14:31:19;7.50;;;1.60;;
1682;SDS011;13252;53.596;10.060;2023-04-03T14:33:48;2.60;;;1.13;;
1682;SDS011;13252;53.596;10.060;2023-04-03T14:36:18;3.87;;;1.27;;
1682;SDS011;13252;53.596;10.060;2023-04-03T14:38:48;3.70;;;1.10;;
1682;SDS011;13252;53.596;10.060;2023-04-03T14:41:18;4.27;;;1.20;;
1682;SDS011;13252;53.596;10.060;2023-04-03T14:43:48;2.93;;;0.93;;
1682;SDS011;13252;53.596;10.060;2023-04-03T14:46:16;6.40;;;1.80;;
1682;SDS011;13252;53.596;10.060;2023-04-03T14:48:47;3.20;;;1.57;;
1682;SDS011;13252;53.596;10.060;2023-04-03T14:51:15;4.33;;;1.23;;
1682;SDS011;13252;53.596;10.060;2023-04-03T14:53:44;6.17;;;2.33;;
1682;SDS011;13252;53.596;10.060;2023-04-03T14:56:13;4.27;;;1.13;;
1682;SDS011;13252;53.596;10.060;2023-04-03T14:58:42;4.33;;;1.53;;
1682;SDS011;13252;53.596;10.060;2023-04-03T15:01:10;2.70;;;1.20;;
1682;SDS011;13252;53.596;10.060;2023-04-03T15:03:40;3.10;;;1.30;;
1682;SDS011;13252;53.596;10.060;2023-04-03T15:06:08;4.47;;;1.30;;
1682;SDS011;13252;53.596;10.060;2023-04-03T15:08:37;3.10;;;1.33;;
1682;SDS011;13252;53.596;10.060;2023-04-03T15:11:06;5.43;;;1.60;;
1682;SDS011;13252;53.596;10.060;2023-04-03T15:13:34;3.30;;;1.57;;
1682;SDS011;13252;53.596;10.060;2023-04-03T15:16:01;3.43;;;1.20;;
1682;SDS011;13252;53.596;10.060;2023-04-03T15:18:31;3.93;;;1.10;;
1682;SDS011;13252;53.596;10.060;2023-04-03T15:21:02;4.43;;;1.43;;
1682;SDS011;13252;53.596;10.060;2023-04-03T15:23:29;6.23;;;1.20;;
1682;SDS011;13252;53.596;10.060;2023-04-03T15:25:57;3.40;;;0.87;;
1682;SDS011;13252;53.596;10.060;2023-04-03T15:28:28;7.13;;;1.70;;
1682;SDS011;13252;53.596;10.060;2023-04-03T15:30:57;4.20;;;1.00;;
1682;SDS011;13252;53.596;10.060;2023-04-03T15:33:24;5.20;;;1.80;;